sensor_id;sensor_type;location;lat;lon;timestamp;P1;durP1;ratioP1;P2;durP2;ratioP2
52798;SDS011;38667;42.872;74.622;2023-11-21T00:00:10;76.30;;;23.60;;
52798;SDS011;38667;42.872;74.622;2023-11-21T00:02:39;66.28;;;22.38;;
52798;SDS011;38667;42.872;74.622;2023-11-21T00:05:06;67.80;;;20.87;;
52798;SDS011;38667;42.872;74.622;2023-11-21T00:07:32;64.20;;;23.57;;
52798;SDS011;38667;42.872;74.622;2023-11-21T00:09:59;69.00;;;22.10;;
52798;SDS011;38667;42.872;74.622;2023-11-21T00:12:25;71.20;;;22.20;;
52798;SDS011;38667;42.872;74.622;2023-11-21T00:14:51;66.15;;;22.08;;
52798;SDS011;38667;42.872;74.622;2023-11-21T00:17:18;68.03;;;18.87;;
52798;SDS011;38667;42.872;74.622;2023-11-21T00:19:45;66.57;;;18.40;;
52798;SDS011;38667;42.872;74.622;2023-11-21T00:22:12;154.80;;;23.20;;
52798;SDS011;38667;42.872;74.622;2023-11-21T00:24:38;154.80;;;23.25;;
52798;SDS011;38667;42.872;74.622;2023-11-21T00:27:04;118.47;;;21.50;;
52798;SDS011;38667;42.872;74.622;2023-11-21T00:29:31;101.70;;;19.93;;
52798;SDS011;38667;42.872;74.622;2023-11-21T00:31:57;71.80;;;18.10;;
52798;SDS011;38667;42.872;74.622;2023-11-21T00:34:23;82.40;;;19.33;;
52798;SDS011;38667;42.872;74.622;2023-11-21T00:36:51;73.15;;;18.10;;
52798;SDS011;38667;42.872;74.622;2023-11-21T00:39:17;66.80;;;17.03;;
52798;SDS011;38667;42.872;74.622;2023-11-21T00:41:44;66.67;;;14.93;;
52798;SDS011;38667;42.872;74.622;2023-11-21T00:44:10;59.83;;;16.77;;
52798;SDS011;38667;42.872;74.622;2023-11-21T00:46:36;46.63;;;14.47;;
52798;SDS011;38667;42.872;74.622;2023-11-21T00:49:03;44.07;;;14.27;;
52798;SDS011;38667;42.872;74.622;2023-11-21T00:51:29;49.27;;;15.07;;
52798;SDS011;38667;42.872;74.622;2023-11-21T00:53:57;49.97;;;15.13;;
52798;SDS011;38667;42.872;74.622;2023-11-21T00:56:23;55.72;;;15.38;;
52798;SDS011;38667;42.872;74.622;2023-11-21T00:58:49;49.80;;;13.63;;
52798;SDS011;38667;42.872;74.622;2023-11-21T01:01:16;51.33;;;14.38;;
52798;SDS011;38667;42.872;74.622;2023-11-21T01:03:42;46.57;;;13.80;;
52798;SDS011;38667;42.872;74.622;2023-11-21T01:06:08;38.43;;;13.03;;
52798;SDS011;38667;42.872;74.622;2023-11-21T01:08:35;49.10;;;13.17;;
52798;SDS011;38667;42.872;74.622;2023-11-21T01:11:03;44.90;;;14.07;;
52798;SDS011;38667;42.872;74.622;2023-11-21T01:13:29;44.63;;;14.43;;
52798;SDS011;38667;42.872;74.622;2023-11-21T01:15:56;54.63;;;13.90;;
52798;SDS011;38667;42.872;74.622;2023-11-21T01:18:22;40.90;;;12.77;;
52798;SDS011;38667;42.872;74.622;2023-11-21T01:20:49;40.73;;;12.70;;
52798;SDS011;38667;42.872;74.622;2023-11-21T01:23:15;41.17;;;12.82;;
52798;SDS011;38667;42.872;74.622;2023-11-21T01:25:41;36.75;;;14.10;;
52798;SDS011;38667;42.872;74.622;2023-11-21T01:28:09;47.25;;;13.30;;
52798;SDS011;38667;42.872;74.622;2023-11-21T01:30:35;42.87;;;13.10;;
52798;SDS011;38667;42.872;74.622;2023-11-21T01:33:02;41.20;;;13.88;;
52798;SDS011;38667;42.872;74.622;2023-11-21T01:35:28;40.67;;;13.45;;
52798;SDS011;38667;42.872;74.622;2023-11-21T01:37:54;45.47;;;13.85;;
52798;SDS011;38667;42.872;74.622;2023-11-21T01:40:20;31.55;;;12.80;;
52798;SDS011;38667;42.872;74.622;2023-11-21T01:42:47;48.23;;;14.13;;
52798;SDS011;38667;42.872;74.622;2023-11-21T01:45:15;59.03;;;15.10;;
52798;SDS011;38667;42.872;74.622;2023-11-21T01:47:41;55.33;;;15.83;;
52798;SDS011;38667;42.872;74.622;2023-11-21T01:50:09;66.30;;;15.80;;
52798;SDS011;38667;42.872;74.622;2023-11-21T01:52:40;49.05;;;14.70;;
52798;SDS011;38667;42.872;74.622;2023-11-21T01:55:08;58.05;;;15.65;;
52798;SDS011;38667;42.872;74.622;2023-11-21T01:57:35;61.10;;;16.02;;
52798;SDS011;38667;42.872;74.622;2023-11-21T02:00:02;66.65;;;19.65;;
52798;SDS011;38667;42.872;74.622;2023-11-21T02:02:31;90.90;;;22.23;;
52798;SDS011;38667;42.872;74.622;2023-11-21T02:04:57;87.20;;;20.30;;
52798;SDS011;38667;42.872;74.622;2023-11-21T02:07:23;79.28;;;19.08;;
52798;SDS011;38667;42.872;74.622;2023-11-21T02:09:50;74.82;;;21.20;;
52798;SDS011;38667;42.872;74.622;2023-11-21T02:12:16;95.03;;;22.77;;
52798;SDS011;38667;42.872;74.622;2023-11-21T02:14:42;90.38;;;25.70;;
52798;SDS011;38667;42.872;74.622;2023-11-21T02:17:09;79.22;;;25.50;;
52798;SDS011;38667;42.872;74.622;2023-11-21T02:19:37;84.90;;;28.05;;
52798;SDS011;38667;42.872;74.622;2023-11-21T02:22:03;115.50;;;29.35;;
52798;SDS011;38667;42.872;74.622;2023-11-21T02:24:31;86.38;;;25.95;;
52798;SDS011;38667;42.872;74.622;2023-11-21T02:26:57;90.03;;;25.83;;
52798;SDS011;38667;42.872;74.622;2023-11-21T02:29:24;89.90;;;23.23;;
52798;SDS011;38667;42.872;74.622;2023-11-21T02:31:51;82.18;;;23.67;;
52798;SDS011;38667;42.872;74.622;2023-11-21T02:34:18;118.57;;;29.15;;
52798;SDS011;38667;42.872;74.622;2023-11-21T02:36:44;111.25;;;29.88;;
52798;SDS011;38667;42.872;74.622;2023-11-21T02:39:11;96.70;;;28.58;;
52798;SDS011;38667;42.872;74.622;2023-11-21T02:41:39;100.97;;;26.63;;
52798;SDS011;38667;42.872;74.622;2023-11-21T02:44:05;93.75;;;27.90;;
52798;SDS011;38667;42.872;74.622;2023-11-21T02:46:32;84.85;;;25.75;;
52798;SDS011;38667;42.872;74.622;2023-11-21T02:48:58;95.22;;;27.00;;
52798;SDS011;38667;42.872;74.622;2023-11-21T02:51:25;114.38;;;28.42;;
52798;SDS011;38667;42.872;74.622;2023-11-21T02:53:51;98.65;;;31.90;;
52798;SDS011;38667;42.872;74.622;2023-11-21T02:56:17;109.25;;;36.97;;
52798;SDS011;38667;42.872;74.622;2023-11-21T02:58:45;114.47;;;42.45;;
52798;SDS011;38667;42.872;74.622;2023-11-21T03:01:11;127.55;;;45.88;;
52798;SDS011;38667;42.872;74.622;2023-11-21T03:03:38;154.07;;;52.88;;
52798;SDS011;38667;42.872;74.622;2023-11-21T03:06:05;141.57;;;54.40;;
52798;SDS011;38667;42.872;74.622;2023-11-21T03:08:31;131.05;;;51.28;;
52798;SDS011;38667;42.872;74.622;2023-11-21T03:10:58;153.55;;;58.13;;
52798;SDS011;38667;42.872;74.622;2023-11-21T03:13:24;143.98;;;55.28;;
52798;SDS011;38667;42.872;74.622;2023-11-21T03:15:52;168.02;;;58.40;;
52798;SDS011;38667;42.872;74.622;2023-11-21T03:18:18;160.20;;;59.08;;
52798;SDS011;38667;42.872;74.622;2023-11-21T03:20:44;147.55;;;56.80;;
52798;SDS011;38667;42.872;74.622;2023-11-21T03:23:11;150.40;;;59.35;;
52798;SDS011;38667;42.872;74.622;2023-11-21T03:25:37;156.30;;;56.05;;
52798;SDS011;38667;42.872;74.622;2023-11-21T03:28:04;171.50;;;55.72;;
52798;SDS011;38667;42.872;74.622;2023-11-21T03:30:30;134.88;;;54.90;;
52798;SDS011;38667;42.872;74.622;2023-11-21T03:32:58;154.23;;;55.50;;
52798;SDS011;38667;42.872;74.622;2023-11-21T03:35:24;148.77;;;53.03;;
52798;SDS011;38667;42.872;74.622;2023-11-21T03:37:50;131.30;;;48.40;;
52798;SDS011;38667;42.872;74.622;2023-11-21T03:40:17;106.40;;;39.78;;
52798;SDS011;38667;42.872;74.622;2023-11-21T03:42:43;102.78;;;39.63;;
52798;SDS011;38667;42.872;74.622;2023-11-21T03:45:09;92.88;;;35.83;;
52798;SDS011;38667;42.872;74.622;2023-11-21T03:47:35;96.53;;;36.17;;
52798;SDS011;38667;42.872;74.622;2023-11-21T03:50:04;85.20;;;31.88;;
52798;SDS011;38667;42.872;74.622;2023-11-21T03:52:30;58.80;;;27.33;;
52798;SDS011;38667;42.872;74.622;2023-11-21T03:54:57;57.20;;;23.20;;
52798;SDS011;38667;42.872;74.622;2023-11-21T03:57:23;57.85;;;21.38;;
52798;SDS011;38667;42.872;74.622;2023-11-21T03:59:49;43.53;;;19.58;;
52798;SDS011;38667;42.872;74.622;2023-11-21T04:02:16;39.67;;;16.90;;
52798;SDS011;38667;42.872;74.622;2023-11-21T04:04:42;49.45;;;17.10;;
52798;SDS011;38667;42.872;74.622;2023-11-21T04:07:10;41.85;;;17.45;;
52798;SDS011;38667;42.872;74.622;2023-11-21T04:09:36;48.47;;;17.85;;
52798;SDS011;38667;42.872;74.622;2023-11-21T04:12:03;40.53;;;17.08;;
52798;SDS011;38667;42.872;74.622;2023-11-21T04:14:29;40.65;;;18.63;;
52798;SDS011;38667;42.872;74.622;2023-11-21T04:16:56;46.95;;;20.55;;
52798;SDS011;38667;42.872;74.622;2023-11-21T04:19:22;50.67;;;19.88;;
52798;SDS011;38667;42.872;74.622;2023-11-21T04:21:48;58.33;;;21.08;;
52798;SDS011;38667;42.872;74.622;2023-11-21T04:24:16;51.22;;;21.40;;
52798;SDS011;38667;42.872;74.622;2023-11-21T04:26:43;53.45;;;20.65;;
52798;SDS011;38667;42.872;74.622;2023-11-21T04:29:09;47.17;;;20.45;;
52798;SDS011;38667;42.872;74.622;2023-11-21T04:31:35;51.50;;;19.67;;
52798;SDS011;38667;42.872;74.622;2023-11-21T04:34:02;39.72;;;17.95;;
52798;SDS011;38667;42.872;74.622;2023-11-21T04:36:28;46.17;;;17.85;;
52798;SDS011;38667;42.872;74.622;2023-11-21T04:38:54;43.78;;;16.33;;
52798;SDS011;38667;42.872;74.622;2023-11-21T04:41:22;35.88;;;14.55;;
52798;SDS011;38667;42.872;74.622;2023-11-21T04:43:48;35.95;;;13.98;;
52798;SDS011;38667;42.872;74.622;2023-11-21T04:46:15;33.80;;;14.48;;
52798;SDS011;38667;42.872;74.622;2023-11-21T04:48:41;25.05;;;12.90;;
52798;SDS011;38667;42.872;74.622;2023-11-21T04:51:07;35.80;;;14.07;;
52798;SDS011;38667;42.872;74.622;2023-11-21T04:53:33;42.85;;;14.65;;
52798;SDS011;38667;42.872;74.622;2023-11-21T04:56:00;34.78;;;14.98;;
52798;SDS011;38667;42.872;74.622;2023-11-21T04:58:28;33.80;;;15.30;;
52798;SDS011;38667;42.872;74.622;2023-11-21T05:00:54;39.45;;;14.55;;
52798;SDS011;38667;42.872;74.622;2023-11-21T05:03:20;44.50;;;14.85;;
52798;SDS011;38667;42.872;74.622;2023-11-21T05:05:46;40.22;;;16.30;;
52798;SDS011;38667;42.872;74.622;2023-11-21T05:08:13;40.97;;;16.00;;
52798;SDS011;38667;42.872;74.622;2023-11-21T05:10:39;46.85;;;17.30;;
52798;SDS011;38667;42.872;74.622;2023-11-21T05:13:05;48.22;;;18.38;;
52798;SDS011;38667;42.872;74.622;2023-11-21T05:15:33;29.67;;;15.07;;
52798;SDS011;38667;42.872;74.622;2023-11-21T05:17:59;41.05;;;16.00;;
52798;SDS011;38667;42.872;74.622;2023-11-21T05:20:26;34.15;;;15.57;;
52798;SDS011;38667;42.872;74.622;2023-11-21T05:22:52;39.53;;;15.15;;
52798;SDS011;38667;42.872;74.622;2023-11-21T05:25:18;37.17;;;14.40;;
52798;SDS011;38667;42.872;74.622;2023-11-21T05:27:45;32.60;;;13.52;;
52798;SDS011;38667;42.872;74.622;2023-11-21T05:30:11;40.80;;;17.65;;
52798;SDS011;38667;42.872;74.622;2023-11-21T05:32:40;44.28;;;17.70;;
52798;SDS011;38667;42.872;74.622;2023-11-21T05:35:07;51.92;;;19.80;;
52798;SDS011;38667;42.872;74.622;2023-11-21T05:37:33;51.40;;;22.45;;
52798;SDS011;38667;42.872;74.622;2023-11-21T05:39:59;50.45;;;20.92;;
52798;SDS011;38667;42.872;74.622;2023-11-21T05:42:26;45.92;;;20.95;;
52798;SDS011;38667;42.872;74.622;2023-11-21T05:44:52;47.85;;;21.15;;
52798;SDS011;38667;42.872;74.622;2023-11-21T05:47:18;45.63;;;20.10;;
52798;SDS011;38667;42.872;74.622;2023-11-21T05:49:46;40.85;;;19.98;;
52798;SDS011;38667;42.872;74.622;2023-11-21T05:52:12;42.85;;;20.15;;
52798;SDS011;38667;42.872;74.622;2023-11-21T05:54:39;47.08;;;19.50;;
52798;SDS011;38667;42.872;74.622;2023-11-21T05:57:05;49.95;;;20.27;;
52798;SDS011;38667;42.872;74.622;2023-11-21T05:59:31;42.25;;;18.52;;
52798;SDS011;38667;42.872;74.622;2023-11-21T06:01:58;46.80;;;20.40;;
52798;SDS011;38667;42.872;74.622;2023-11-21T06:04:24;36.65;;;18.60;;
52798;SDS011;38667;42.872;74.622;2023-11-21T06:06:52;50.03;;;19.73;;
52798;SDS011;38667;42.872;74.622;2023-11-21T06:09:19;49.08;;;19.73;;
52798;SDS011;38667;42.872;74.622;2023-11-21T06:11:45;39.00;;;18.85;;
52798;SDS011;38667;42.872;74.622;2023-11-21T06:14:11;48.55;;;19.65;;
52798;SDS011;38667;42.872;74.622;2023-11-21T06:16:38;47.28;;;19.27;;
52798;SDS011;38667;42.872;74.622;2023-11-21T06:19:04;31.73;;;15.65;;
52798;SDS011;38667;42.872;74.622;2023-11-21T06:21:30;46.22;;;16.65;;
52798;SDS011;38667;42.872;74.622;2023-11-21T06:23:58;38.97;;;14.25;;
52798;SDS011;38667;42.872;74.622;2023-11-21T06:26:25;26.02;;;12.88;;
52798;SDS011;38667;42.872;74.622;2023-11-21T06:28:52;29.52;;;12.77;;
52798;SDS011;38667;42.872;74.622;2023-11-21T06:31:18;30.08;;;13.55;;
52798;SDS011;38667;42.872;74.622;2023-11-21T06:33:44;33.85;;;12.15;;
52798;SDS011;38667;42.872;74.622;2023-11-21T06:36:11;21.48;;;11.52;;
52798;SDS011;38667;42.872;74.622;2023-11-21T06:38:37;24.65;;;11.38;;
52798;SDS011;38667;42.872;74.622;2023-11-21T06:41:05;27.90;;;12.60;;
52798;SDS011;38667;42.872;74.622;2023-11-21T06:43:32;28.27;;;12.25;;
52798;SDS011;38667;42.872;74.622;2023-11-21T06:45:58;26.45;;;12.65;;
52798;SDS011;38667;42.872;74.622;2023-11-21T06:48:24;24.98;;;12.43;;
52798;SDS011;38667;42.872;74.622;2023-11-21T06:50:51;29.33;;;13.32;;
52798;SDS011;38667;42.872;74.622;2023-11-21T06:53:17;25.27;;;12.30;;
52798;SDS011;38667;42.872;74.622;2023-11-21T06:55:43;31.35;;;11.32;;
52798;SDS011;38667;42.872;74.622;2023-11-21T06:58:11;24.58;;;11.02;;
52798;SDS011;38667;42.872;74.622;2023-11-21T07:00:37;27.20;;;11.63;;
52798;SDS011;38667;42.872;74.622;2023-11-21T07:03:04;30.65;;;11.57;;
52798;SDS011;38667;42.872;74.622;2023-11-21T07:05:30;25.70;;;12.38;;
52798;SDS011;38667;42.872;74.622;2023-11-21T07:07:56;27.27;;;12.15;;
52798;SDS011;38667;42.872;74.622;2023-11-21T07:10:23;32.08;;;11.52;;
52798;SDS011;38667;42.872;74.622;2023-11-21T07:12:49;28.27;;;11.85;;
52798;SDS011;38667;42.872;74.622;2023-11-21T07:15:17;28.70;;;11.27;;
52798;SDS011;38667;42.872;74.622;2023-11-21T07:17:43;25.73;;;12.63;;
52798;SDS011;38667;42.872;74.622;2023-11-21T07:20:10;26.10;;;12.55;;
52798;SDS011;38667;42.872;74.622;2023-11-21T07:22:36;31.63;;;12.70;;
52798;SDS011;38667;42.872;74.622;2023-11-21T07:25:03;30.67;;;11.75;;
52798;SDS011;38667;42.872;74.622;2023-11-21T07:27:30;24.70;;;11.75;;
52798;SDS011;38667;42.872;74.622;2023-11-21T07:29:56;25.00;;;11.57;;
52798;SDS011;38667;42.872;74.622;2023-11-21T07:32:24;31.15;;;11.07;;
52798;SDS011;38667;42.872;74.622;2023-11-21T07:34:50;40.53;;;12.77;;
52798;SDS011;38667;42.872;74.622;2023-11-21T07:37:16;25.40;;;12.15;;
52798;SDS011;38667;42.872;74.622;2023-11-21T07:39:43;30.23;;;10.45;;
52798;SDS011;38667;42.872;74.622;2023-11-21T07:42:09;23.88;;;11.00;;
52798;SDS011;38667;42.872;74.622;2023-11-21T07:44:35;29.20;;;9.75;;
52798;SDS011;38667;42.872;74.622;2023-11-21T07:47:02;29.23;;;9.70;;
52798;SDS011;38667;42.872;74.622;2023-11-21T07:49:30;21.88;;;9.35;;
52798;SDS011;38667;42.872;74.622;2023-11-21T07:51:56;28.02;;;10.02;;
52798;SDS011;38667;42.872;74.622;2023-11-21T07:54:22;25.60;;;9.02;;
52798;SDS011;38667;42.872;74.622;2023-11-21T07:56:49;21.80;;;8.38;;
52798;SDS011;38667;42.872;74.622;2023-11-21T07:59:15;21.75;;;8.65;;
52798;SDS011;38667;42.872;74.622;2023-11-21T08:01:41;14.55;;;7.85;;
52798;SDS011;38667;42.872;74.622;2023-11-21T08:04:07;23.20;;;8.07;;
52798;SDS011;38667;42.872;74.622;2023-11-21T08:06:35;16.77;;;6.95;;
52798;SDS011;38667;42.872;74.622;2023-11-21T08:09:02;18.00;;;8.10;;
52798;SDS011;38667;42.872;74.622;2023-11-21T08:11:28;22.45;;;9.00;;
52798;SDS011;38667;42.872;74.622;2023-11-21T08:13:54;20.60;;;8.05;;
52798;SDS011;38667;42.872;74.622;2023-11-21T08:16:21;17.05;;;8.10;;
52798;SDS011;38667;42.872;74.622;2023-11-21T08:18:47;14.48;;;6.05;;
52798;SDS011;38667;42.872;74.622;2023-11-21T08:21:13;15.80;;;7.10;;
52798;SDS011;38667;42.872;74.622;2023-11-21T08:23:41;18.58;;;6.82;;
52798;SDS011;38667;42.872;74.622;2023-11-21T08:26:07;21.42;;;7.88;;
52798;SDS011;38667;42.872;74.622;2023-11-21T08:28:34;18.10;;;7.32;;
52798;SDS011;38667;42.872;74.622;2023-11-21T08:31:00;20.42;;;6.78;;
52798;SDS011;38667;42.872;74.622;2023-11-21T08:33:27;21.23;;;7.18;;
52798;SDS011;38667;42.872;74.622;2023-11-21T08:35:53;17.08;;;7.00;;
52798;SDS011;38667;42.872;74.622;2023-11-21T08:38:19;15.73;;;7.60;;
52798;SDS011;38667;42.872;74.622;2023-11-21T08:40:47;14.75;;;7.10;;
52798;SDS011;38667;42.872;74.622;2023-11-21T08:43:13;16.95;;;7.47;;
52798;SDS011;38667;42.872;74.622;2023-11-21T08:45:39;15.70;;;8.35;;
52798;SDS011;38667;42.872;74.622;2023-11-21T08:48:06;18.75;;;9.23;;
52798;SDS011;38667;42.872;74.622;2023-11-21T08:50:32;13.80;;;8.65;;
52798;SDS011;38667;42.872;74.622;2023-11-21T08:52:58;18.10;;;7.75;;
52798;SDS011;38667;42.872;74.622;2023-11-21T08:55:25;30.65;;;9.25;;
52798;SDS011;38667;42.872;74.622;2023-11-21T08:57:53;22.80;;;7.90;;
52798;SDS011;38667;42.872;74.622;2023-11-21T09:00:19;18.65;;;7.22;;
52798;SDS011;38667;42.872;74.622;2023-11-21T09:02:45;16.20;;;7.15;;
52798;SDS011;38667;42.872;74.622;2023-11-21T09:05:12;14.50;;;7.47;;
52798;SDS011;38667;42.872;74.622;2023-11-21T09:07:39;18.38;;;8.40;;
52798;SDS011;38667;42.872;74.622;2023-11-21T09:10:07;21.67;;;8.68;;
52798;SDS011;38667;42.872;74.622;2023-11-21T09:12:34;19.27;;;7.45;;
52798;SDS011;38667;42.872;74.622;2023-11-21T09:15:02;18.02;;;8.85;;
52798;SDS011;38667;42.872;74.622;2023-11-21T09:17:29;17.75;;;7.57;;
52798;SDS011;38667;42.872;74.622;2023-11-21T09:19:55;16.80;;;8.65;;
52798;SDS011;38667;42.872;74.622;2023-11-21T09:22:22;18.90;;;7.80;;
52798;SDS011;38667;42.872;74.622;2023-11-21T09:24:48;17.38;;;7.38;;
52798;SDS011;38667;42.872;74.622;2023-11-21T09:27:14;17.02;;;7.60;;
52798;SDS011;38667;42.872;74.622;2023-11-21T09:29:40;18.35;;;8.25;;
52798;SDS011;38667;42.872;74.622;2023-11-21T09:32:08;16.95;;;8.57;;
52798;SDS011;38667;42.872;74.622;2023-11-21T09:34:35;18.95;;;8.18;;
52798;SDS011;38667;42.872;74.622;2023-11-21T09:37:03;15.32;;;8.13;;
52798;SDS011;38667;42.872;74.622;2023-11-21T09:39:29;17.75;;;7.70;;
52798;SDS011;38667;42.872;74.622;2023-11-21T09:41:56;18.95;;;9.05;;
52798;SDS011;38667;42.872;74.622;2023-11-21T09:44:29;20.15;;;9.85;;
52798;SDS011;38667;42.872;74.622;2023-11-21T09:47:01;22.15;;;11.02;;
52798;SDS011;38667;42.872;74.622;2023-11-21T09:49:29;31.80;;;11.85;;
52798;SDS011;38667;42.872;74.622;2023-11-21T09:51:58;13.82;;;8.52;;
52798;SDS011;38667;42.872;74.622;2023-11-21T09:54:26;15.57;;;8.52;;
52798;SDS011;38667;42.872;74.622;2023-11-21T09:56:54;17.98;;;8.68;;
52798;SDS011;38667;42.872;74.622;2023-11-21T09:59:20;18.73;;;8.07;;
52798;SDS011;38667;42.872;74.622;2023-11-21T10:01:47;20.77;;;8.05;;
52798;SDS011;38667;42.872;74.622;2023-11-21T10:04:13;23.42;;;8.82;;
52798;SDS011;38667;42.872;74.622;2023-11-21T10:06:41;20.15;;;8.48;;
52798;SDS011;38667;42.872;74.622;2023-11-21T10:09:09;14.65;;;7.60;;
52798;SDS011;38667;42.872;74.622;2023-11-21T10:11:36;20.58;;;7.88;;
52798;SDS011;38667;42.872;74.622;2023-11-21T10:14:05;20.73;;;7.88;;
52798;SDS011;38667;42.872;74.622;2023-11-21T10:16:33;15.90;;;7.57;;
52798;SDS011;38667;42.872;74.622;2023-11-21T10:18:59;17.75;;;6.90;;
52798;SDS011;38667;42.872;74.622;2023-11-21T10:21:26;18.13;;;7.43;;
52798;SDS011;38667;42.872;74.622;2023-11-21T10:23:54;14.25;;;7.45;;
52798;SDS011;38667;42.872;74.622;2023-11-21T10:26:20;17.58;;;7.18;;
52798;SDS011;38667;42.872;74.622;2023-11-21T10:28:57;14.65;;;7.28;;
52798;SDS011;38667;42.872;74.622;2023-11-21T10:31:24;15.55;;;7.15;;
52798;SDS011;38667;42.872;74.622;2023-11-21T10:33:52;15.32;;;6.72;;
52798;SDS011;38667;42.872;74.622;2023-11-21T10:36:24;17.42;;;6.47;;
52798;SDS011;38667;42.872;74.622;2023-11-21T10:38:51;19.08;;;7.13;;
52798;SDS011;38667;42.872;74.622;2023-11-21T10:41:19;19.67;;;7.57;;
52798;SDS011;38667;42.872;74.622;2023-11-21T10:43:46;14.93;;;7.60;;
52798;SDS011;38667;42.872;74.622;2023-11-21T10:46:13;14.40;;;7.00;;
52798;SDS011;38667;42.872;74.622;2023-11-21T10:48:41;14.25;;;7.53;;
52798;SDS011;38667;42.872;74.622;2023-11-21T10:51:08;17.35;;;7.00;;
52798;SDS011;38667;42.872;74.622;2023-11-21T10:53:34;13.23;;;7.45;;
52798;SDS011;38667;42.872;74.622;2023-11-21T10:56:06;17.05;;;8.98;;
52798;SDS011;38667;42.872;74.622;2023-11-21T10:58:34;17.80;;;8.90;;
52798;SDS011;38667;42.872;74.622;2023-11-21T11:01:02;22.27;;;10.40;;
52798;SDS011;38667;42.872;74.622;2023-11-21T11:03:31;21.85;;;9.45;;
52798;SDS011;38667;42.872;74.622;2023-11-21T11:06:01;19.48;;;10.77;;
52798;SDS011;38667;42.872;74.622;2023-11-21T11:08:30;20.25;;;9.93;;
52798;SDS011;38667;42.872;74.622;2023-11-21T11:10:57;25.40;;;10.38;;
52798;SDS011;38667;42.872;74.622;2023-11-21T11:13:25;22.20;;;9.05;;
52798;SDS011;38667;42.872;74.622;2023-11-21T11:15:52;21.85;;;9.70;;
52798;SDS011;38667;42.872;74.622;2023-11-21T11:18:23;30.50;;;9.88;;
52798;SDS011;38667;42.872;74.622;2023-11-21T11:20:49;24.48;;;10.27;;
52798;SDS011;38667;42.872;74.622;2023-11-21T11:23:25;20.42;;;10.90;;
52798;SDS011;38667;42.872;74.622;2023-11-21T11:26:06;26.15;;;10.98;;
52798;SDS011;38667;42.872;74.622;2023-11-21T11:28:45;21.55;;;11.20;;
52798;SDS011;38667;42.872;74.622;2023-11-21T11:31:20;31.13;;;11.25;;
52798;SDS011;38667;42.872;74.622;2023-11-21T11:33:57;32.78;;;11.43;;
52798;SDS011;38667;42.872;74.622;2023-11-21T11:36:34;25.80;;;10.52;;
52798;SDS011;38667;42.872;74.622;2023-11-21T11:41:54;29.48;;;12.52;;
52798;SDS011;38667;42.872;74.622;2023-11-21T11:47:13;31.48;;;13.35;;
52798;SDS011;38667;42.872;74.622;2023-11-21T11:49:47;30.90;;;13.70;;
52798;SDS011;38667;42.872;74.622;2023-11-21T11:52:37;33.65;;;13.43;;
52798;SDS011;38667;42.872;74.622;2023-11-21T11:55:06;31.25;;;13.60;;
52798;SDS011;38667;42.872;74.622;2023-11-21T11:57:34;31.55;;;13.32;;
52798;SDS011;38667;42.872;74.622;2023-11-21T12:00:12;24.83;;;12.43;;
52798;SDS011;38667;42.872;74.622;2023-11-21T12:02:40;26.23;;;12.93;;
52798;SDS011;38667;42.872;74.622;2023-11-21T12:05:08;27.08;;;13.75;;
52798;SDS011;38667;42.872;74.622;2023-11-21T12:07:45;25.63;;;13.65;;
52798;SDS011;38667;42.872;74.622;2023-11-21T12:10:16;32.70;;;15.00;;
52798;SDS011;38667;42.872;74.622;2023-11-21T12:12:45;40.60;;;18.85;;
52798;SDS011;38667;42.872;74.622;2023-11-21T12:15:14;44.25;;;19.52;;
52798;SDS011;38667;42.872;74.622;2023-11-21T12:17:41;49.65;;;22.23;;
52798;SDS011;38667;42.872;74.622;2023-11-21T12:20:08;50.60;;;25.35;;
52798;SDS011;38667;42.872;74.622;2023-11-21T12:22:35;55.38;;;26.38;;
52798;SDS011;38667;42.872;74.622;2023-11-21T12:25:02;56.30;;;29.35;;
52798;SDS011;38667;42.872;74.622;2023-11-21T12:27:29;64.35;;;31.33;;
52798;SDS011;38667;42.872;74.622;2023-11-21T12:29:55;71.03;;;32.45;;
52798;SDS011;38667;42.872;74.622;2023-11-21T12:32:23;73.15;;;33.47;;
52798;SDS011;38667;42.872;74.622;2023-11-21T12:34:49;76.20;;;35.90;;
52798;SDS011;38667;42.872;74.622;2023-11-21T12:37:16;78.68;;;37.67;;
52798;SDS011;38667;42.872;74.622;2023-11-21T12:39:43;80.68;;;39.38;;
52798;SDS011;38667;42.872;74.622;2023-11-21T12:42:09;90.68;;;40.05;;
52798;SDS011;38667;42.872;74.622;2023-11-21T12:44:35;88.15;;;43.17;;
52798;SDS011;38667;42.872;74.622;2023-11-21T12:47:02;88.18;;;42.28;;
52798;SDS011;38667;42.872;74.622;2023-11-21T12:49:30;96.35;;;45.13;;
52798;SDS011;38667;42.872;74.622;2023-11-21T12:51:56;85.43;;;44.20;;
52798;SDS011;38667;42.872;74.622;2023-11-21T12:54:22;88.07;;;44.80;;
52798;SDS011;38667;42.872;74.622;2023-11-21T12:56:49;99.50;;;46.72;;
52798;SDS011;38667;42.872;74.622;2023-11-21T12:59:15;91.20;;;44.83;;
52798;SDS011;38667;42.872;74.622;2023-11-21T13:01:42;109.95;;;48.95;;
52798;SDS011;38667;42.872;74.622;2023-11-21T13:04:08;97.97;;;48.67;;
52798;SDS011;38667;42.872;74.622;2023-11-21T13:06:36;103.97;;;47.22;;
52798;SDS011;38667;42.872;74.622;2023-11-21T13:09:03;95.95;;;48.08;;
52798;SDS011;38667;42.872;74.622;2023-11-21T13:11:29;110.22;;;48.08;;
52798;SDS011;38667;42.872;74.622;2023-11-21T13:13:59;109.72;;;47.75;;
52798;SDS011;38667;42.872;74.622;2023-11-21T13:16:25;93.60;;;48.63;;
52798;SDS011;38667;42.872;74.622;2023-11-21T13:18:51;106.68;;;47.50;;
52798;SDS011;38667;42.872;74.622;2023-11-21T13:21:18;101.57;;;49.03;;
52798;SDS011;38667;42.872;74.622;2023-11-21T13:23:46;102.45;;;48.83;;
52798;SDS011;38667;42.872;74.622;2023-11-21T13:26:12;102.82;;;48.78;;
52798;SDS011;38667;42.872;74.622;2023-11-21T13:28:38;107.35;;;50.47;;
52798;SDS011;38667;42.872;74.622;2023-11-21T13:31:05;101.07;;;51.80;;
52798;SDS011;38667;42.872;74.622;2023-11-21T13:33:31;106.85;;;55.35;;
52798;SDS011;38667;42.872;74.622;2023-11-21T13:35:58;114.75;;;54.47;;
52798;SDS011;38667;42.872;74.622;2023-11-21T13:38:25;117.97;;;55.33;;
52798;SDS011;38667;42.872;74.622;2023-11-21T13:40:53;125.13;;;55.97;;
52798;SDS011;38667;42.872;74.622;2023-11-21T13:43:19;121.20;;;57.75;;
52798;SDS011;38667;42.872;74.622;2023-11-21T13:45:47;120.32;;;62.38;;
52798;SDS011;38667;42.872;74.622;2023-11-21T13:48:13;128.18;;;65.30;;
52798;SDS011;38667;42.872;74.622;2023-11-21T13:50:40;138.30;;;68.57;;
52798;SDS011;38667;42.872;74.622;2023-11-21T13:53:06;135.32;;;67.90;;
52798;SDS011;38667;42.872;74.622;2023-11-21T13:55:32;135.55;;;69.07;;
52798;SDS011;38667;42.872;74.622;2023-11-21T13:58:00;138.18;;;68.82;;
52798;SDS011;38667;42.872;74.622;2023-11-21T14:00:27;163.82;;;80.90;;
52798;SDS011;38667;42.872;74.622;2023-11-21T14:02:53;211.07;;;97.25;;
52798;SDS011;38667;42.872;74.622;2023-11-21T14:05:19;195.85;;;88.55;;
52798;SDS011;38667;42.872;74.622;2023-11-21T14:07:46;174.05;;;88.78;;
52798;SDS011;38667;42.872;74.622;2023-11-21T14:10:12;150.15;;;74.85;;
52798;SDS011;38667;42.872;74.622;2023-11-21T14:12:38;127.15;;;57.63;;